createdAt,value
2018-03-03T00:00:13.234Z,-3.45
2018-03-03T00:01:13.803Z,-3.45
2018-03-03T00:02:14.370Z,-3.44
2018-03-03T00:03:14.930Z,-3.45
2018-03-03T00:04:15.495Z,-3.49
2018-03-03T00:05:16.061Z,-3.55
2018-03-03T00:06:16.625Z,-3.58
2018-03-03T00:07:17.190Z,-3.51
2018-03-03T00:08:17.758Z,-3.48
2018-03-03T00:09:18.318Z,-3.56
2018-03-03T00:10:18.884Z,-3.59
2018-03-03T00:11:19.448Z,-3.49
2018-03-03T00:12:20.014Z,-3.55
2018-03-03T00:13:20.576Z,-3.58
2018-03-03T00:14:21.142Z,-3.63
2018-03-03T00:15:21.717Z,-3.55
2018-03-03T00:16:22.282Z,-3.56
2018-03-03T00:17:22.846Z,-3.55
2018-03-03T00:18:23.412Z,-3.55
2018-03-03T00:19:23.976Z,-3.38
2018-03-03T00:20:24.541Z,-3.48
2018-03-03T00:21:25.106Z,-3.59
2018-03-03T00:22:25.671Z,-3.58
2018-03-03T00:23:26.249Z,-3.59
2018-03-03T00:24:26.814Z,-3.58
2018-03-03T00:25:27.377Z,-3.58
2018-03-03T00:26:27.947Z,-3.63
2018-03-03T00:27:28.516Z,-3.63
2018-03-03T00:28:29.072Z,-3.59
2018-03-03T00:29:29.636Z,-3.63
2018-03-03T00:30:30.201Z,-3.56
2018-03-03T00:31:30.767Z,-3.45
2018-03-03T00:32:31.345Z,-3.69
2018-03-03T00:33:31.922Z,-3.67
2018-03-03T00:34:32.486Z,-3.61
2018-03-03T00:35:33.061Z,-3.64
2018-03-03T00:36:33.617Z,-3.59
2018-03-03T00:37:34.181Z,-3.59
2018-03-03T00:38:34.745Z,-3.58
2018-03-03T00:39:35.314Z,-3.58
2018-03-03T00:40:35.890Z,-3.59
2018-03-03T00:41:36.458Z,-3.63
2018-03-03T00:42:37.020Z,-3.63
2018-03-03T00:43:37.584Z,-3.67
2018-03-03T00:44:38.150Z,-3.58
2018-03-03T00:45:38.715Z,-3.61
2018-03-03T00:46:39.279Z,-3.59
2018-03-03T00:47:39.844Z,-3.61
2018-03-03T00:48:40.406Z,-3.61
2018-03-03T00:49:40.977Z,-3.69
2018-03-03T00:50:41.538Z,-3.69
2018-03-03T00:51:42.103Z,-3.61
2018-03-03T00:52:42.666Z,-3.63
2018-03-03T00:53:43.229Z,-3.67
2018-03-03T00:54:43.794Z,-3.66
2018-03-03T00:55:44.366Z,-3.67
2018-03-03T00:56:44.923Z,-3.72
2018-03-03T00:57:45.501Z,-3.77
2018-03-03T00:58:46.067Z,-3.67
2018-03-03T00:59:46.630Z,-3.78
2018-03-03T01:00:47.195Z,-3.88
2018-03-03T01:01:47.763Z,-3.91
2018-03-03T01:02:48.340Z,-3.89
2018-03-03T01:03:48.905Z,-3.96
2018-03-03T01:04:49.468Z,-3.96
2018-03-03T01:05:50.032Z,-4.04
2018-03-03T01:06:50.597Z,-3.99
2018-03-03T01:07:51.164Z,-4.09
2018-03-03T01:08:51.731Z,-4.07
2018-03-03T01:09:52.291Z,-4.04
2018-03-03T01:10:52.870Z,-4.07
2018-03-03T01:11:53.434Z,-4.06
2018-03-03T01:12:53.999Z,-4.13
2018-03-03T01:13:54.565Z,-4.09
2018-03-03T01:14:55.129Z,-4.20
2018-03-03T01:15:55.693Z,-4.27
2018-03-03T01:16:56.271Z,-4.21
2018-03-03T01:17:56.836Z,-4.30
2018-03-03T01:18:57.402Z,-4.25
2018-03-03T01:19:57.966Z,-4.39
2018-03-03T01:20:58.529Z,-4.28
2018-03-03T01:21:59.095Z,-4.24
2018-03-03T01:22:59.657Z,-4.27
2018-03-03T01:24:00.232Z,-4.25
2018-03-03T01:25:00.791Z,-4.39
2018-03-03T01:26:01.352Z,-4.38
2018-03-03T01:27:01.915Z,-4.32
2018-03-03T01:28:02.492Z,-4.30
2018-03-03T01:29:03.060Z,-4.34
2018-03-03T01:30:03.620Z,-4.39
2018-03-03T01:31:04.186Z,-4.31
2018-03-03T01:32:04.749Z,-4.39
2018-03-03T01:33:05.315Z,-4.41
2018-03-03T01:34:05.892Z,-4.43
2018-03-03T01:35:06.459Z,-4.48
2018-03-03T01:36:07.023Z,-4.42
2018-03-03T01:37:07.586Z,-4.50
2018-03-03T01:38:08.167Z,-4.42
2018-03-03T01:39:08.729Z,-4.42
2018-03-03T01:40:09.293Z,-4.55
2018-03-03T01:41:09.855Z,-4.45
2018-03-03T01:42:10.420Z,-4.52
2018-03-03T01:43:10.986Z,-4.49
2018-03-03T01:44:11.550Z,-4.53
2018-03-03T01:45:12.114Z,-4.55
2018-03-03T01:46:12.677Z,-4.57
2018-03-03T01:47:13.242Z,-4.52
2018-03-03T01:48:13.808Z,-4.55
2018-03-03T01:49:14.371Z,-4.63
2018-03-03T01:50:14.936Z,-4.52
2018-03-03T01:51:15.499Z,-4.49
2018-03-03T01:52:16.062Z,-4.55
2018-03-03T01:53:16.628Z,-4.55
2018-03-03T01:54:17.193Z,-4.60
2018-03-03T01:55:17.754Z,-4.49
2018-03-03T01:56:18.317Z,-4.61
2018-03-03T01:57:18.882Z,-4.53
2018-03-03T01:58:19.448Z,-4.57
2018-03-03T01:59:20.012Z,-4.50
2018-03-03T02:00:20.578Z,-4.60
2018-03-03T02:01:21.153Z,-4.59
2018-03-03T02:02:21.719Z,-4.55
2018-03-03T02:03:22.282Z,-4.64
2018-03-03T02:04:22.846Z,-4.52
2018-03-03T02:05:23.410Z,-4.52
2018-03-03T02:06:23.974Z,-4.42
2018-03-03T02:07:24.540Z,-4.49
2018-03-03T02:08:25.105Z,-4.53
2018-03-03T02:09:25.669Z,-4.50
2018-03-03T02:10:26.233Z,-4.46
2018-03-03T02:11:26.796Z,-4.41
2018-03-03T02:12:27.362Z,-4.38
2018-03-03T02:13:27.925Z,-4.39
2018-03-03T02:14:28.490Z,-4.39
2018-03-03T02:15:29.053Z,-4.38
2018-03-03T02:16:29.617Z,-4.39
2018-03-03T02:17:30.184Z,-4.49
2018-03-03T02:18:30.747Z,-4.41
2018-03-03T02:19:31.311Z,-4.38
2018-03-03T02:20:31.875Z,-4.41
2018-03-03T02:21:32.438Z,-4.34
2018-03-03T02:22:33.003Z,-4.34
2018-03-03T02:23:33.571Z,-4.38
2018-03-03T02:24:34.143Z,-4.30
2018-03-03T02:25:34.709Z,-4.32
2018-03-03T02:26:35.272Z,-4.31
2018-03-03T02:27:35.837Z,-4.28
2018-03-03T02:28:36.403Z,-4.41
2018-03-03T02:29:36.966Z,-4.41
2018-03-03T02:30:37.530Z,-4.34
2018-03-03T02:31:38.106Z,-4.39
2018-03-03T02:32:38.670Z,-4.43
2018-03-03T02:33:39.234Z,-4.27
2018-03-03T02:34:39.799Z,-4.27
2018-03-03T02:35:40.363Z,-4.38
2018-03-03T02:36:40.928Z,-4.38
2018-03-03T02:37:41.492Z,-4.27
2018-03-03T02:38:42.055Z,-4.30
2018-03-03T02:39:42.620Z,-4.28
2018-03-03T02:40:43.186Z,-4.25
2018-03-03T02:41:43.748Z,-4.27
2018-03-03T02:42:44.312Z,-4.42
2018-03-03T02:43:44.876Z,-4.35
2018-03-03T02:44:45.441Z,-4.32
2018-03-03T02:45:46.012Z,-4.27
2018-03-03T02:46:46.586Z,-4.34
2018-03-03T02:47:47.152Z,-4.27
2018-03-03T02:48:47.722Z,-4.22
2018-03-03T02:49:48.283Z,-4.22
2018-03-03T02:50:48.848Z,-4.28
2018-03-03T02:51:49.413Z,-4.30
2018-03-03T02:52:49.976Z,-4.30
2018-03-03T02:53:50.541Z,-4.14
2018-03-03T02:54:51.121Z,-4.10
2018-03-03T02:55:51.683Z,-4.17
2018-03-03T02:56:52.248Z,-4.20
2018-03-03T02:57:52.813Z,-4.24
2018-03-03T02:58:53.377Z,-4.24
2018-03-03T02:59:53.943Z,-4.20
2018-03-03T03:00:54.508Z,-4.14
2018-03-03T03:01:55.070Z,-4.17
2018-03-03T03:02:55.638Z,-4.14
2018-03-03T03:03:56.200Z,-4.14
2018-03-03T03:04:56.764Z,-4.22
2018-03-03T03:05:57.328Z,-4.14
2018-03-03T03:06:57.893Z,-4.10
2018-03-03T03:07:58.460Z,-4.13
2018-03-03T03:08:59.024Z,-4.16
2018-03-03T03:09:59.588Z,-4.07
2018-03-03T03:11:00.153Z,-4.10
2018-03-03T03:12:00.718Z,-4.10
2018-03-03T03:13:01.280Z,-4.16
2018-03-03T03:14:01.844Z,-4.06
2018-03-03T03:15:02.425Z,-4.06
2018-03-03T03:16:02.988Z,-4.12
2018-03-03T03:17:03.568Z,-4.07
2018-03-03T03:18:04.129Z,-4.17
2018-03-03T03:19:04.695Z,-4.13
2018-03-03T03:20:05.260Z,-4.16
2018-03-03T03:21:05.824Z,-4.16
2018-03-03T03:22:06.388Z,-4.06
2018-03-03T03:23:06.955Z,-4.12
2018-03-03T03:24:07.520Z,-4.14
2018-03-03T03:25:08.098Z,-4.06
2018-03-03T03:26:08.663Z,-4.07
2018-03-03T03:27:09.228Z,-4.06
2018-03-03T03:28:09.795Z,-4.07
2018-03-03T03:29:10.360Z,-4.12
2018-03-03T03:30:10.924Z,-4.12
2018-03-03T03:31:11.488Z,-4.07
2018-03-03T03:32:12.054Z,-4.12
2018-03-03T03:33:12.617Z,-4.03
2018-03-03T03:34:13.183Z,-4.07
2018-03-03T03:35:13.748Z,-4.07
2018-03-03T03:36:14.313Z,-3.95
2018-03-03T03:37:14.879Z,-3.98
2018-03-03T03:38:15.443Z,-4.09
2018-03-03T03:39:16.007Z,-4.02
2018-03-03T03:40:16.570Z,-3.99
2018-03-03T03:41:17.136Z,-4.02
2018-03-03T03:42:17.702Z,-3.96
2018-03-03T03:43:18.267Z,-3.96
2018-03-03T03:44:18.847Z,-3.98
2018-03-03T03:45:19.412Z,-3.99
2018-03-03T03:46:19.983Z,-4.02
2018-03-03T03:47:20.544Z,-3.95
2018-03-03T03:48:21.107Z,-3.93
2018-03-03T03:49:21.672Z,-3.98
2018-03-03T03:50:22.237Z,-3.93
2018-03-03T03:51:22.816Z,-3.98
2018-03-03T03:52:23.381Z,-3.95
2018-03-03T03:53:23.946Z,-3.91
2018-03-03T03:54:24.524Z,-3.89
2018-03-03T03:55:25.105Z,-3.92
2018-03-03T03:56:25.670Z,-4.03
2018-03-03T03:57:26.232Z,-3.93
2018-03-03T03:58:26.804Z,-3.95
2018-03-03T03:59:27.364Z,-3.93
2018-03-03T04:00:27.928Z,-3.91
2018-03-03T04:01:28.491Z,-3.91
2018-03-03T04:02:29.058Z,-3.86
2018-03-03T04:03:29.623Z,-3.85
2018-03-03T04:04:30.188Z,-3.86
2018-03-03T04:05:30.752Z,-3.82
2018-03-03T04:06:31.332Z,-3.91
2018-03-03T04:07:31.909Z,-3.98
2018-03-03T04:08:32.472Z,-3.93
2018-03-03T04:09:33.036Z,-3.85
2018-03-03T04:10:33.600Z,-3.78
2018-03-03T04:11:34.167Z,-3.80
2018-03-03T04:12:34.746Z,-3.86
2018-03-03T04:13:35.307Z,-3.83
2018-03-03T04:14:35.870Z,-3.86
2018-03-03T04:15:36.433Z,-3.83
2018-03-03T04:16:36.998Z,-3.89
2018-03-03T04:17:37.564Z,-3.89
2018-03-03T04:18:38.128Z,-3.83
2018-03-03T04:19:38.692Z,-3.85
2018-03-03T04:20:39.256Z,-3.93
2018-03-03T04:21:39.820Z,-4.04
2018-03-03T04:22:40.387Z,-3.91
2018-03-03T04:23:40.949Z,-3.85
2018-03-03T04:24:41.514Z,-3.85
2018-03-03T04:25:42.078Z,-3.85
2018-03-03T04:26:42.644Z,-3.91
2018-03-03T04:27:43.208Z,-3.78
2018-03-03T04:28:43.773Z,-3.83
2018-03-03T04:29:44.340Z,-3.82
2018-03-03T04:30:44.915Z,-3.89
2018-03-03T04:31:45.482Z,-3.86
2018-03-03T04:32:46.051Z,-3.82
2018-03-03T04:33:46.614Z,-3.91
2018-03-03T04:34:47.179Z,-3.89
2018-03-03T04:35:47.747Z,-3.92
2018-03-03T04:36:48.307Z,-3.83
2018-03-03T04:37:48.871Z,-3.86
2018-03-03T04:38:49.435Z,-3.92
2018-03-03T04:39:50.009Z,-3.91
2018-03-03T04:40:50.564Z,-3.91
2018-03-03T04:41:51.129Z,-3.89
2018-03-03T04:42:51.694Z,-3.89
2018-03-03T04:43:52.263Z,-3.92
2018-03-03T04:44:52.825Z,-3.78
2018-03-03T04:45:53.388Z,-3.89
2018-03-03T04:46:53.954Z,-3.96
2018-03-03T04:47:54.518Z,-3.98
2018-03-03T04:48:55.081Z,-3.91
2018-03-03T04:49:55.651Z,-4.06
2018-03-03T04:50:56.210Z,-3.93
2018-03-03T04:51:56.774Z,-3.92
2018-03-03T04:52:57.339Z,-3.91
2018-03-03T04:53:57.903Z,-3.96
2018-03-03T04:54:58.469Z,-3.93
2018-03-03T04:55:59.047Z,-3.89
2018-03-03T04:56:59.627Z,-3.92
2018-03-03T04:58:00.196Z,-3.88
2018-03-03T04:59:00.768Z,-3.98
2018-03-03T05:00:01.334Z,-3.91
2018-03-03T05:01:01.899Z,-3.95
2018-03-03T05:02:02.463Z,-3.93
2018-03-03T05:03:03.042Z,-3.85
2018-03-03T05:04:03.594Z,-3.92
2018-03-03T05:05:04.158Z,-3.96
2018-03-03T05:06:04.721Z,-3.92
2018-03-03T05:07:05.287Z,-3.98
2018-03-03T05:08:05.899Z,-3.95
2018-03-03T05:09:06.447Z,-3.91
2018-03-03T05:10:07.014Z,-4.02
2018-03-03T05:11:07.578Z,-3.98
2018-03-03T05:12:08.146Z,-3.96
2018-03-03T05:13:08.709Z,-3.93
2018-03-03T05:14:09.297Z,-3.92
2018-03-03T05:15:09.837Z,-3.93
2018-03-03T05:16:10.402Z,-3.95
2018-03-03T05:17:10.966Z,-3.89
2018-03-03T05:18:11.536Z,-3.91
2018-03-03T05:19:12.098Z,-3.92
2018-03-03T05:20:12.662Z,-3.91
2018-03-03T05:21:13.228Z,-3.91
2018-03-03T05:22:13.793Z,-3.93
2018-03-03T05:23:14.357Z,-3.92
2018-03-03T05:24:14.922Z,-3.95
2018-03-03T05:25:15.485Z,-3.98
2018-03-03T05:26:16.053Z,-3.93
2018-03-03T05:27:16.631Z,-3.89
2018-03-03T05:28:17.209Z,-3.91
2018-03-03T05:29:17.773Z,-3.91
2018-03-03T05:30:18.338Z,-3.86
2018-03-03T05:31:18.902Z,-3.86
2018-03-03T05:32:19.468Z,-3.93
2018-03-03T05:33:20.035Z,-3.92
2018-03-03T05:34:20.599Z,-3.99
2018-03-03T05:35:21.180Z,-3.98
2018-03-03T05:36:21.743Z,-3.96
2018-03-03T05:37:22.322Z,-3.91
2018-03-03T05:38:22.885Z,-3.86
2018-03-03T05:39:23.452Z,-3.91
2018-03-03T05:40:24.032Z,-3.88
2018-03-03T05:41:24.598Z,-3.91
2018-03-03T05:42:25.177Z,-3.99
2018-03-03T05:43:25.741Z,-3.91
2018-03-03T05:44:26.309Z,-3.92
2018-03-03T05:45:26.872Z,-3.89
2018-03-03T05:46:27.435Z,-3.88
2018-03-03T05:47:28.002Z,-3.96
2018-03-03T05:48:28.564Z,-4.02
2018-03-03T05:49:29.129Z,-3.95
2018-03-03T05:50:29.695Z,-4.03
2018-03-03T05:51:30.260Z,-3.93
2018-03-03T05:52:30.822Z,-3.93
2018-03-03T05:53:31.387Z,-3.95
2018-03-03T05:54:31.952Z,-3.96
2018-03-03T05:55:32.518Z,-3.99
2018-03-03T05:56:33.101Z,-4.04
2018-03-03T05:57:33.662Z,-3.99
2018-03-03T05:58:34.242Z,-3.92
2018-03-03T05:59:34.805Z,-3.95
2018-03-03T06:00:35.372Z,-3.93
2018-03-03T06:01:35.936Z,-3.96
2018-03-03T06:02:36.502Z,-3.88
2018-03-03T06:03:37.080Z,-3.83
2018-03-03T06:04:37.645Z,-3.91
2018-03-03T06:05:38.209Z,-3.92
2018-03-03T06:06:38.775Z,-3.96
2018-03-03T06:07:39.338Z,-3.88
2018-03-03T06:08:39.904Z,-3.82
2018-03-03T06:09:40.471Z,-3.93
2018-03-03T06:10:41.045Z,-3.88
2018-03-03T06:11:41.610Z,-3.86
2018-03-03T06:12:42.177Z,-3.83
2018-03-03T06:13:42.741Z,-3.93
2018-03-03T06:14:43.306Z,-3.95
2018-03-03T06:15:43.872Z,-3.88
2018-03-03T06:16:44.442Z,-3.85
2018-03-03T06:17:45.004Z,-3.95
2018-03-03T06:18:45.570Z,-3.93
2018-03-03T06:19:46.135Z,-3.88
2018-03-03T06:20:46.704Z,-3.93
2018-03-03T06:21:47.268Z,-3.86
2018-03-03T06:22:47.834Z,-3.86
2018-03-03T06:23:48.402Z,-3.89
2018-03-03T06:24:48.968Z,-3.86
2018-03-03T06:25:49.534Z,-3.88
2018-03-03T06:26:50.102Z,-3.85
2018-03-03T06:27:50.667Z,-3.91
2018-03-03T06:28:51.233Z,-3.85
2018-03-03T06:29:51.800Z,-3.86
2018-03-03T06:30:52.365Z,-3.82
2018-03-03T06:31:52.929Z,-3.86
2018-03-03T06:32:53.496Z,-3.88
2018-03-03T06:33:54.062Z,-3.83
2018-03-03T06:34:54.628Z,-3.83
2018-03-03T06:35:55.191Z,-3.80
2018-03-03T06:36:55.756Z,-3.85
2018-03-03T06:37:56.323Z,-3.86
2018-03-03T06:38:56.888Z,-3.96
2018-03-03T06:39:57.455Z,-3.99
2018-03-03T06:40:58.022Z,-4.13
2018-03-03T06:41:58.587Z,-3.96
2018-03-03T06:42:59.154Z,-3.91
2018-03-03T06:43:59.722Z,-3.80
2018-03-03T06:45:00.285Z,-3.92
2018-03-03T06:46:00.850Z,-3.85
2018-03-03T06:47:01.417Z,-3.93
2018-03-03T06:48:01.984Z,-3.91
2018-03-03T06:49:02.548Z,-3.93
2018-03-03T06:50:03.122Z,-3.92
2018-03-03T06:51:03.683Z,-3.93
2018-03-03T06:52:04.249Z,-3.92
2018-03-03T06:53:04.817Z,-3.83
2018-03-03T06:54:05.386Z,-3.83
2018-03-03T06:55:05.965Z,-3.72
2018-03-03T06:56:06.534Z,-3.59
2018-03-03T06:57:07.100Z,-3.78
2018-03-03T06:58:07.665Z,-3.93
2018-03-03T06:59:08.232Z,-3.75
2018-03-03T07:00:08.801Z,-3.74
2018-03-03T07:01:09.365Z,-3.61
2018-03-03T07:02:09.935Z,-3.69
2018-03-03T07:03:10.500Z,-3.63
2018-03-03T07:04:11.067Z,-3.66
2018-03-03T07:05:11.635Z,-3.72
2018-03-03T07:06:12.204Z,-3.56
2018-03-03T07:07:12.772Z,-3.52
2018-03-03T07:08:13.340Z,-3.45
2018-03-03T07:09:13.909Z,-3.51
2018-03-03T07:10:14.484Z,-3.52
2018-03-03T07:11:15.047Z,-3.48
2018-03-03T07:12:15.613Z,-3.74
2018-03-03T07:13:16.182Z,-3.49
2018-03-03T07:14:16.749Z,-3.45
2018-03-03T07:15:17.317Z,-3.37
2018-03-03T07:16:17.887Z,-3.38
2018-03-03T07:17:18.455Z,-3.45
2018-03-03T07:18:19.023Z,-3.58
2018-03-03T07:19:19.591Z,-3.41
2018-03-03T07:20:20.173Z,-3.66
2018-03-03T07:21:20.740Z,-3.59
2018-03-03T07:22:21.307Z,-3.37
2018-03-03T07:23:21.879Z,-3.44
2018-03-03T07:24:22.445Z,-3.55
2018-03-03T07:25:23.016Z,-3.41
2018-03-03T07:26:23.585Z,-3.41
2018-03-03T07:27:24.150Z,-3.44
2018-03-03T07:28:24.770Z,-3.45
2018-03-03T07:29:25.290Z,-3.45
2018-03-03T07:30:25.878Z,-3.48
2018-03-03T07:31:26.438Z,-3.51
2018-03-03T07:32:27.005Z,-3.44
2018-03-03T07:33:27.587Z,-3.44
2018-03-03T07:34:28.155Z,-3.37
2018-03-03T07:35:28.723Z,-3.37
2018-03-03T07:36:29.292Z,-3.31
2018-03-03T07:37:29.863Z,-3.30
2018-03-03T07:38:30.444Z,-3.34
2018-03-03T07:39:31.012Z,-3.28
2018-03-03T07:40:31.594Z,-3.19
2018-03-03T07:41:32.164Z,-3.06
2018-03-03T07:42:32.731Z,-3.23
2018-03-03T07:43:33.301Z,-3.22
2018-03-03T07:44:33.868Z,-3.10
2018-03-03T07:45:34.438Z,-3.04
2018-03-03T07:46:35.005Z,-3.20
2018-03-03T07:47:35.571Z,-3.16
2018-03-03T07:48:36.141Z,-2.94
2018-03-03T07:49:36.710Z,-2.89
2018-03-03T07:50:37.275Z,-2.86
2018-03-03T07:51:37.847Z,-2.94
2018-03-03T07:52:38.427Z,-2.74
2018-03-03T07:53:38.994Z,-2.83
2018-03-03T07:54:39.563Z,-2.78
2018-03-03T07:55:40.132Z,-2.77
2018-03-03T07:56:40.700Z,-2.81
2018-03-03T07:57:41.269Z,-2.77
2018-03-03T07:58:41.836Z,-2.76
2018-03-03T07:59:42.407Z,-2.73
2018-03-03T08:00:42.974Z,-2.76
2018-03-03T08:01:43.557Z,-2.73
2018-03-03T08:02:44.127Z,-2.81
2018-03-03T08:03:44.697Z,-2.76
2018-03-03T08:04:45.265Z,-2.83
2018-03-03T08:05:45.833Z,-2.73
2018-03-03T08:06:46.402Z,-2.73
2018-03-03T08:07:46.972Z,-2.73
2018-03-03T08:08:47.539Z,-2.77
2018-03-03T08:09:48.107Z,-2.80
2018-03-03T08:10:48.680Z,-2.76
2018-03-03T08:11:49.243Z,-2.71
2018-03-03T08:12:49.826Z,-2.77
2018-03-03T08:13:50.383Z,-2.76
2018-03-03T08:14:50.950Z,-2.65
2018-03-03T08:15:51.524Z,-2.71
2018-03-03T08:16:52.089Z,-2.66
2018-03-03T08:17:52.667Z,-2.71
2018-03-03T08:18:53.228Z,-2.62
2018-03-03T08:19:53.797Z,-2.59
2018-03-03T08:20:54.376Z,-2.59
2018-03-03T08:21:54.944Z,-2.56
2018-03-03T08:22:55.512Z,-2.52
2018-03-03T08:23:56.080Z,-2.35
2018-03-03T08:24:56.649Z,-2.47
2018-03-03T08:25:57.218Z,-2.48
2018-03-03T08:26:57.786Z,-2.48
2018-03-03T08:27:58.358Z,-2.40
2018-03-03T08:28:58.926Z,-2.34
2018-03-03T08:29:59.494Z,-2.26
2018-03-03T08:31:00.061Z,-2.26
2018-03-03T08:32:00.628Z,-2.34
2018-03-03T08:33:01.197Z,-2.34
2018-03-03T08:34:01.765Z,-2.23
2018-03-03T08:35:02.334Z,-2.23
2018-03-03T08:36:02.902Z,-2.12
2018-03-03T08:37:03.471Z,-2.23
2018-03-03T08:38:04.042Z,-2.15
2018-03-03T08:39:04.611Z,-1.90
2018-03-03T08:40:05.183Z,-2.00
2018-03-03T08:41:05.749Z,-2.04
2018-03-03T08:42:06.316Z,-2.00
2018-03-03T08:43:06.883Z,-1.94
2018-03-03T08:44:07.452Z,-1.89
2018-03-03T08:45:08.021Z,-1.71
2018-03-03T08:46:08.589Z,-1.84
2018-03-03T08:47:09.156Z,-1.79
2018-03-03T08:48:09.724Z,-1.89
2018-03-03T08:49:10.294Z,-1.90
2018-03-03T08:50:10.859Z,-1.86
2018-03-03T08:51:11.433Z,-1.90
2018-03-03T08:52:12.013Z,-1.83
2018-03-03T08:53:12.581Z,-2.02
2018-03-03T08:54:13.166Z,-1.90
2018-03-03T08:55:13.732Z,-1.80
2018-03-03T08:56:14.301Z,-1.86
2018-03-03T08:57:14.923Z,-1.79
2018-03-03T08:58:15.439Z,-1.69
2018-03-03T08:59:16.009Z,-1.72
2018-03-03T09:00:16.576Z,-1.82
2018-03-03T09:01:17.145Z,-1.65
2018-03-03T09:02:17.714Z,-1.68
2018-03-03T09:03:18.282Z,-1.64
2018-03-03T09:04:18.850Z,-1.58
2018-03-03T09:05:19.420Z,-1.65
2018-03-03T09:06:19.990Z,-1.69
2018-03-03T09:07:20.558Z,-1.65
2018-03-03T09:08:21.149Z,-1.59
2018-03-03T09:09:21.711Z,-1.58
2018-03-03T09:10:22.281Z,-1.44
2018-03-03T09:11:22.848Z,-1.46
2018-03-03T09:12:23.419Z,-1.32
2018-03-03T09:13:23.988Z,-1.44
2018-03-03T09:14:24.558Z,-1.59
2018-03-03T09:15:25.166Z,-1.44
2018-03-03T09:16:25.695Z,-1.54
2018-03-03T09:17:26.266Z,-1.47
2018-03-03T09:18:26.849Z,-1.40
2018-03-03T09:19:27.419Z,-1.23
2018-03-03T09:20:27.989Z,-1.30
2018-03-03T09:21:28.558Z,-1.58
2018-03-03T09:22:29.126Z,-1.44
2018-03-03T09:23:29.696Z,-1.46
2018-03-03T09:24:30.267Z,-1.44
2018-03-03T09:25:30.835Z,-1.40
2018-03-03T09:26:31.404Z,-1.40
2018-03-03T09:27:31.974Z,-1.47
2018-03-03T09:28:32.570Z,-1.61
2018-03-03T09:29:33.116Z,-1.47
2018-03-03T09:30:33.684Z,-1.32
2018-03-03T09:31:34.250Z,-1.25
2018-03-03T09:32:34.820Z,-1.19
2018-03-03T09:33:35.390Z,-1.11
2018-03-03T09:34:35.971Z,-1.29
2018-03-03T09:35:36.542Z,-1.15
2018-03-03T09:36:37.111Z,-1.12
2018-03-03T09:37:37.679Z,-1.09
2018-03-03T09:38:38.250Z,-1.15
2018-03-03T09:39:38.819Z,-1.12
2018-03-03T09:40:39.388Z,-1.05
2018-03-03T09:41:39.956Z,-1.05
2018-03-03T09:42:40.526Z,-1.14
2018-03-03T09:43:41.095Z,-0.97
2018-03-03T09:44:41.665Z,-0.90
2018-03-03T09:45:42.247Z,-0.86
2018-03-03T09:46:42.820Z,-0.86
2018-03-03T09:47:43.392Z,-0.94
2018-03-03T09:48:43.957Z,-0.82
2018-03-03T09:49:44.527Z,-0.85
2018-03-03T09:50:45.096Z,-0.89
2018-03-03T09:51:45.666Z,-0.71
2018-03-03T09:52:46.233Z,-0.67
2018-03-03T09:53:46.803Z,-0.62
2018-03-03T09:54:47.371Z,-0.61
2018-03-03T09:55:47.939Z,-0.53
2018-03-03T09:56:48.516Z,-0.54
2018-03-03T09:57:49.080Z,-0.39
2018-03-03T09:58:49.667Z,-0.29
2018-03-03T09:59:50.220Z,-0.38
2018-03-03T10:00:50.789Z,-0.41
2018-03-03T10:01:58.934Z,-0.44
2018-03-03T10:02:51.928Z,-0.36
2018-03-03T10:03:52.497Z,-0.29
2018-03-03T10:04:53.067Z,-0.21
2018-03-03T10:05:53.651Z,-0.38
2018-03-03T10:06:54.220Z,-0.25
2018-03-03T10:07:54.791Z,-0.36
2018-03-03T10:08:55.360Z,-0.36
2018-03-03T10:10:40.173Z,-0.32
2018-03-03T10:11:40.742Z,-0.32
2018-03-03T10:12:41.309Z,-0.26
2018-03-03T10:13:41.881Z,-0.26
2018-03-03T10:14:42.451Z,-0.21
2018-03-03T10:15:43.034Z,-0.08
2018-03-03T10:16:43.603Z,-0.03
2018-03-03T10:17:44.174Z,-0.03
2018-03-03T10:18:44.743Z,-0.15
2018-03-03T10:19:45.313Z,-0.03
2018-03-03T10:20:45.892Z,0.05
2018-03-03T10:21:46.450Z,0.16
2018-03-03T10:22:47.019Z,0.18
2018-03-03T10:23:47.601Z,0.11
2018-03-03T10:24:48.172Z,0.12
2018-03-03T10:25:48.740Z,0.21
2018-03-03T10:26:49.308Z,0.12
2018-03-03T10:27:49.878Z,0.25
2018-03-03T10:28:50.446Z,0.32
2018-03-03T10:29:51.016Z,0.36
2018-03-03T10:30:51.607Z,0.25
2018-03-03T10:31:52.172Z,0.16
2018-03-03T10:32:52.741Z,0.31
2018-03-03T10:33:53.308Z,0.31
2018-03-03T10:34:53.877Z,0.15
2018-03-03T10:35:54.445Z,0.19
2018-03-03T10:36:55.029Z,0.18
2018-03-03T10:37:55.585Z,0.01
2018-03-03T10:38:56.171Z,0.25
2018-03-03T10:39:56.736Z,0.18
2018-03-03T10:40:57.319Z,0.36
2018-03-03T10:41:57.889Z,0.34
2018-03-03T10:42:58.461Z,0.19
2018-03-03T10:43:59.042Z,0.15
2018-03-03T10:44:59.609Z,0.18
2018-03-03T10:46:00.178Z,0.16
2018-03-03T10:47:00.748Z,0.26
2018-03-03T10:48:01.331Z,0.29
2018-03-03T10:49:01.901Z,0.36
2018-03-03T10:50:02.474Z,0.22
2018-03-03T10:51:03.045Z,0.31
2018-03-03T10:52:03.608Z,0.31
2018-03-03T10:53:04.179Z,0.29
2018-03-03T10:54:04.747Z,0.28
2018-03-03T10:55:05.315Z,0.22
2018-03-03T10:56:05.887Z,0.34
2018-03-03T10:57:06.455Z,0.44
2018-03-03T10:58:07.024Z,0.52
2018-03-03T10:59:07.594Z,0.56
2018-03-03T11:00:08.163Z,0.62
2018-03-03T11:01:08.730Z,0.58
2018-03-03T11:02:09.299Z,0.50
2018-03-03T11:03:09.868Z,0.47
2018-03-03T11:04:10.451Z,0.52
2018-03-03T11:05:11.020Z,0.50
2018-03-03T11:06:11.589Z,0.56
2018-03-03T11:07:12.159Z,0.59
2018-03-03T11:08:12.727Z,0.78
2018-03-03T11:09:13.299Z,0.78
2018-03-03T11:10:13.866Z,0.78
2018-03-03T11:11:14.436Z,0.73
2018-03-03T11:12:15.007Z,0.68
2018-03-03T11:13:15.577Z,0.70
2018-03-03T11:14:16.175Z,0.66
2018-03-03T11:15:16.745Z,0.62
2018-03-03T11:16:17.318Z,0.62
2018-03-03T11:17:17.885Z,0.49
2018-03-03T11:18:18.467Z,0.65
2018-03-03T11:19:19.037Z,0.59
2018-03-03T11:20:19.608Z,0.62
2018-03-03T11:21:20.177Z,0.68
2018-03-03T11:22:20.750Z,0.73
2018-03-03T11:23:21.316Z,0.65
2018-03-03T11:24:21.887Z,0.65
2018-03-03T11:25:22.454Z,0.74
2018-03-03T11:26:23.028Z,0.80
2018-03-03T11:27:23.595Z,0.84
2018-03-03T11:28:24.162Z,0.87
2018-03-03T11:29:24.733Z,0.69
2018-03-03T11:30:25.316Z,0.84
2018-03-03T11:31:25.924Z,0.68
2018-03-03T11:32:26.492Z,0.78
2018-03-03T11:33:27.062Z,0.88
2018-03-03T11:34:27.634Z,0.84
2018-03-03T11:35:28.204Z,0.96
2018-03-03T11:36:28.770Z,0.94
2018-03-03T11:37:29.340Z,0.96
2018-03-03T11:38:29.909Z,0.95
2018-03-03T11:39:30.481Z,0.96
2018-03-03T11:40:33.136Z,0.98
2018-03-03T11:41:31.642Z,0.95
2018-03-03T11:42:32.218Z,0.96
2018-03-03T11:43:32.787Z,1.04
2018-03-03T11:44:33.357Z,0.91
2018-03-03T11:45:33.926Z,0.84
2018-03-03T11:46:34.494Z,0.78
2018-03-03T11:47:35.065Z,0.81
2018-03-03T11:48:35.633Z,1.01
2018-03-03T11:49:36.205Z,1.05
2018-03-03T11:50:36.770Z,1.01
2018-03-03T11:51:37.340Z,0.98
2018-03-03T11:52:37.908Z,0.96
2018-03-03T11:53:38.477Z,0.98
2018-03-03T11:54:39.052Z,0.94
2018-03-03T11:55:39.631Z,1.05
2018-03-03T11:56:40.200Z,1.05
2018-03-03T11:57:40.784Z,0.80
2018-03-03T11:58:41.356Z,0.91
2018-03-03T11:59:41.926Z,0.96
2018-03-03T12:00:42.494Z,1.01
2018-03-03T12:01:43.067Z,0.96
2018-03-03T12:02:43.647Z,1.01
2018-03-03T12:03:44.218Z,1.02
2018-03-03T12:04:44.786Z,0.94
2018-03-03T12:05:45.368Z,0.99
2018-03-03T12:06:45.938Z,1.02
2018-03-03T12:07:46.507Z,0.96
2018-03-03T12:08:47.079Z,0.94
2018-03-03T12:09:47.645Z,1.02
2018-03-03T12:10:48.216Z,0.94
2018-03-03T12:11:48.798Z,0.96
2018-03-03T12:12:49.369Z,0.96
2018-03-03T12:13:49.938Z,1.02
2018-03-03T12:14:50.523Z,1.16
2018-03-03T12:15:51.093Z,1.05
2018-03-03T12:16:51.663Z,0.98
2018-03-03T12:17:52.229Z,0.96
2018-03-03T12:18:52.797Z,1.10
2018-03-03T12:19:53.367Z,1.19
2018-03-03T12:20:53.940Z,1.17
2018-03-03T12:21:54.507Z,1.19
2018-03-03T12:22:55.077Z,1.16
2018-03-03T12:23:55.645Z,1.10
2018-03-03T12:24:56.215Z,1.16
2018-03-03T12:25:56.786Z,1.14
2018-03-03T12:26:57.355Z,1.30
2018-03-03T12:27:57.926Z,1.32
2018-03-03T12:28:58.500Z,1.26
2018-03-03T12:29:59.065Z,1.30
2018-03-03T12:30:59.634Z,1.26
2018-03-03T12:32:00.207Z,1.26
2018-03-03T12:33:00.773Z,1.20
2018-03-03T12:34:01.344Z,1.20
2018-03-03T12:35:01.914Z,1.16
2018-03-03T12:36:02.483Z,1.14
2018-03-03T12:37:03.054Z,1.24
2018-03-03T12:38:03.640Z,1.19
2018-03-03T12:39:04.209Z,1.31
2018-03-03T12:40:04.779Z,1.35
2018-03-03T12:41:05.350Z,1.24
2018-03-03T12:42:05.919Z,1.32
2018-03-03T12:43:06.490Z,1.32
2018-03-03T12:44:07.061Z,1.24
2018-03-03T12:45:07.633Z,1.38
2018-03-03T12:46:08.201Z,1.38
2018-03-03T12:47:08.770Z,1.37
2018-03-03T12:48:09.339Z,1.37
2018-03-03T12:49:09.914Z,1.13
2018-03-03T12:50:10.496Z,1.17
2018-03-03T12:51:11.065Z,1.13
2018-03-03T12:52:11.635Z,1.16
2018-03-03T12:53:12.204Z,1.16
2018-03-03T12:54:12.773Z,1.02
2018-03-03T12:55:13.341Z,1.12
2018-03-03T12:56:13.922Z,1.05
2018-03-03T12:57:14.493Z,0.80
2018-03-03T12:58:15.071Z,0.94
2018-03-03T12:59:15.634Z,1.01
2018-03-03T13:00:16.206Z,0.98
2018-03-03T13:01:16.787Z,0.99
2018-03-03T13:02:17.357Z,1.08
2018-03-03T13:03:17.926Z,1.04
2018-03-03T13:04:18.496Z,1.05
2018-03-03T13:05:19.066Z,0.98
2018-03-03T13:06:19.637Z,0.96